sensor_id;sensor_type;location;lat;lon;timestamp;pressure;altitude;pressure_sealevel;temperature;humidity
34961;BME280;30789;52.030;7.110;2023-05-23T00:01:34;100848.72;;;15.22;75.12
34961;BME280;30789;52.030;7.110;2023-05-23T00:04:01;100850.69;;;15.25;75.48
34961;BME280;30789;52.030;7.110;2023-05-23T00:06:29;100848.44;;;15.09;75.83
34961;BME280;30789;52.030;7.110;2023-05-23T00:08:56;100843.03;;;14.95;76.67
34961;BME280;30789;52.030;7.110;2023-05-23T00:11:23;100842.81;;;15.16;76.06
34961;BME280;30789;52.030;7.110;2023-05-23T00:13:51;100841.69;;;15.10;75.94
34961;BME280;30789;52.030;7.110;2023-05-23T00:16:18;100837.66;;;15.15;75.95
34961;BME280;30789;52.030;7.110;2023-05-23T00:18:45;100843.03;;;14.95;76.78
34961;BME280;30789;52.030;7.110;2023-05-23T00:21:12;100836.53;;;15.09;76.62
34961;BME280;30789;52.030;7.110;2023-05-23T00:23:40;100839.31;;;15.09;76.42
34961;BME280;30789;52.030;7.110;2023-05-23T00:26:07;100840.13;;;15.09;76.17
34961;BME280;30789;52.030;7.110;2023-05-23T00:28:33;100844.84;;;15.12;76.97
34961;BME280;30789;52.030;7.110;2023-05-23T00:31:00;100847.22;;;15.10;77.05
34961;BME280;30789;52.030;7.110;2023-05-23T00:33:26;100851.91;;;15.20;76.26
34961;BME280;30789;52.030;7.110;2023-05-23T00:35:53;100846.03;;;15.11;76.86
34961;BME280;30789;52.030;7.110;2023-05-23T00:38:20;100853.59;;;15.07;77.40
34961;BME280;30789;52.030;7.110;2023-05-23T00:40:48;100860.16;;;15.27;76.83
34961;BME280;30789;52.030;7.110;2023-05-23T00:43:14;100856.25;;;15.21;78.11
34961;BME280;30789;52.030;7.110;2023-05-23T00:45:41;100858.00;;;15.05;78.49
34961;BME280;30789;52.030;7.110;2023-05-23T00:48:07;100863.28;;;14.89;79.16
34961;BME280;30789;52.030;7.110;2023-05-23T00:50:34;100846.63;;;14.89;79.42
34961;BME280;30789;52.030;7.110;2023-05-23T00:53:01;100850.66;;;14.81;79.95
34961;BME280;30789;52.030;7.110;2023-05-23T00:55:28;100848.53;;;14.99;78.92
34961;BME280;30789;52.030;7.110;2023-05-23T00:57:57;100847.41;;;14.93;78.78
34961;BME280;30789;52.030;7.110;2023-05-23T01:00:24;100854.44;;;15.01;78.82
34961;BME280;30789;52.030;7.110;2023-05-23T01:02:51;100854.84;;;15.03;78.68
34961;BME280;30789;52.030;7.110;2023-05-23T01:05:19;100853.56;;;15.14;78.62
34961;BME280;30789;52.030;7.110;2023-05-23T01:07:49;100844.44;;;15.14;78.06
34961;BME280;30789;52.030;7.110;2023-05-23T01:10:18;100849.16;;;15.17;78.58
34961;BME280;30789;52.030;7.110;2023-05-23T01:12:53;100849.38;;;14.96;79.20
34961;BME280;30789;52.030;7.110;2023-05-23T01:15:27;100856.41;;;15.04;78.84
34961;BME280;30789;52.030;7.110;2023-05-23T01:17:58;100861.19;;;15.03;79.08
34961;BME280;30789;52.030;7.110;2023-05-23T01:20:30;100851.72;;;14.97;79.41
34961;BME280;30789;52.030;7.110;2023-05-23T01:23:12;100858.06;;;14.98;79.81
34961;BME280;30789;52.030;7.110;2023-05-23T01:25:53;100851.41;;;14.88;80.21
34961;BME280;30789;52.030;7.110;2023-05-23T01:28:31;100852.16;;;14.92;79.75
34961;BME280;30789;52.030;7.110;2023-05-23T01:30:59;100859.75;;;14.88;80.34
34961;BME280;30789;52.030;7.110;2023-05-23T01:33:27;100862.38;;;15.02;79.85
34961;BME280;30789;52.030;7.110;2023-05-23T01:35:57;100864.41;;;14.98;80.16
34961;BME280;30789;52.030;7.110;2023-05-23T01:38:26;100864.00;;;15.00;80.21
34961;BME280;30789;52.030;7.110;2023-05-23T01:40:53;100863.56;;;15.01;80.43
34961;BME280;30789;52.030;7.110;2023-05-23T01:43:20;100868.00;;;14.92;80.44
34961;BME280;30789;52.030;7.110;2023-05-23T01:45:49;100874.16;;;14.69;82.23
34961;BME280;30789;52.030;7.110;2023-05-23T01:48:17;100874.56;;;14.68;82.12
34961;BME280;30789;52.030;7.110;2023-05-23T01:50:44;100877.25;;;14.78;81.76
34961;BME280;30789;52.030;7.110;2023-05-23T01:53:12;100868.63;;;14.66;82.68
34961;BME280;30789;52.030;7.110;2023-05-23T01:55:40;100872.63;;;14.58;83.07
34961;BME280;30789;52.030;7.110;2023-05-23T01:58:07;100882.53;;;14.62;83.25
34961;BME280;30789;52.030;7.110;2023-05-23T02:00:34;100882.88;;;14.68;82.91
34961;BME280;30789;52.030;7.110;2023-05-23T02:03:02;100877.78;;;14.59;83.07
34961;BME280;30789;52.030;7.110;2023-05-23T02:05:30;100887.69;;;14.60;83.08
34961;BME280;30789;52.030;7.110;2023-05-23T02:07:56;100892.44;;;14.63;83.01
34961;BME280;30789;52.030;7.110;2023-05-23T02:10:23;100885.66;;;14.64;82.70
34961;BME280;30789;52.030;7.110;2023-05-23T02:12:49;100888.84;;;14.63;82.30
34961;BME280;30789;52.030;7.110;2023-05-23T02:15:16;100893.63;;;14.62;82.21
34961;BME280;30789;52.030;7.110;2023-05-23T02:17:42;100895.19;;;14.63;82.71
34961;BME280;30789;52.030;7.110;2023-05-23T02:20:10;100890.00;;;14.69;82.48
34961;BME280;30789;52.030;7.110;2023-05-23T02:22:37;100898.81;;;14.53;82.53
34961;BME280;30789;52.030;7.110;2023-05-23T02:25:05;100894.88;;;14.51;82.77
34961;BME280;30789;52.030;7.110;2023-05-23T02:27:32;100897.31;;;14.42;83.52
34961;BME280;30789;52.030;7.110;2023-05-23T02:29:58;100907.66;;;14.38;84.04
34961;BME280;30789;52.030;7.110;2023-05-23T02:32:25;100906.78;;;14.44;84.14
34961;BME280;30789;52.030;7.110;2023-05-23T02:34:51;100902.50;;;14.36;84.05
34961;BME280;30789;52.030;7.110;2023-05-23T02:37:19;100897.72;;;14.37;84.20
34961;BME280;30789;52.030;7.110;2023-05-23T02:39:45;100905.69;;;14.31;83.84
34961;BME280;30789;52.030;7.110;2023-05-23T02:42:12;100915.31;;;14.02;84.39
34961;BME280;30789;52.030;7.110;2023-05-23T02:44:38;100908.19;;;13.98;85.25
34961;BME280;30789;52.030;7.110;2023-05-23T02:47:05;100921.25;;;13.97;85.32
34961;BME280;30789;52.030;7.110;2023-05-23T02:49:32;100914.09;;;14.07;84.89
34961;BME280;30789;52.030;7.110;2023-05-23T02:51:58;100910.19;;;13.94;85.16
34961;BME280;30789;52.030;7.110;2023-05-23T02:54:26;100918.88;;;13.99;84.82
34961;BME280;30789;52.030;7.110;2023-05-23T02:56:52;100914.53;;;13.95;85.19
34961;BME280;30789;52.030;7.110;2023-05-23T02:59:20;100915.31;;;13.99;85.54
34961;BME280;30789;52.030;7.110;2023-05-23T03:01:47;100911.38;;;13.89;86.12
34961;BME280;30789;52.030;7.110;2023-05-23T03:04:13;100916.16;;;13.85;86.24
34961;BME280;30789;52.030;7.110;2023-05-23T03:06:40;100916.56;;;13.84;85.69
34961;BME280;30789;52.030;7.110;2023-05-23T03:09:08;100920.50;;;13.93;85.99
34961;BME280;30789;52.030;7.110;2023-05-23T03:11:36;100922.09;;;13.84;85.91
34961;BME280;30789;52.030;7.110;2023-05-23T03:14:03;100924.50;;;13.74;86.26
34961;BME280;30789;52.030;7.110;2023-05-23T03:16:29;100929.28;;;13.67;86.74
34961;BME280;30789;52.030;7.110;2023-05-23T03:18:56;100931.63;;;13.75;85.94
34961;BME280;30789;52.030;7.110;2023-05-23T03:21:22;100943.09;;;13.74;85.70
34961;BME280;30789;52.030;7.110;2023-05-23T03:23:49;100934.00;;;13.70;86.03
34961;BME280;30789;52.030;7.110;2023-05-23T03:26:15;100932.00;;;13.74;86.19
34961;BME280;30789;52.030;7.110;2023-05-23T03:28:43;100931.63;;;13.79;85.49
34961;BME280;30789;52.030;7.110;2023-05-23T03:31:09;100926.44;;;13.85;85.52
34961;BME280;30789;52.030;7.110;2023-05-23T03:33:36;100922.88;;;13.91;85.21
34961;BME280;30789;52.030;7.110;2023-05-23T03:36:03;100925.63;;;13.88;85.16
34961;BME280;30789;52.030;7.110;2023-05-23T03:38:30;100926.84;;;13.87;84.99
34961;BME280;30789;52.030;7.110;2023-05-23T03:40:56;100932.41;;;13.80;85.42
34961;BME280;30789;52.030;7.110;2023-05-23T03:43:23;100913.44;;;13.71;85.53
34961;BME280;30789;52.030;7.110;2023-05-23T03:45:51;100931.22;;;13.81;85.66
34961;BME280;30789;52.030;7.110;2023-05-23T03:48:17;100937.97;;;13.62;86.42
34961;BME280;30789;52.030;7.110;2023-05-23T03:50:44;100939.94;;;13.61;86.20
34961;BME280;30789;52.030;7.110;2023-05-23T03:53:10;100939.56;;;13.66;85.90
34961;BME280;30789;52.030;7.110;2023-05-23T03:55:37;100938.78;;;13.59;86.43
34961;BME280;30789;52.030;7.110;2023-05-23T03:58:04;100939.16;;;13.71;86.31
34961;BME280;30789;52.030;7.110;2023-05-23T04:00:30;100945.47;;;13.75;86.10
34961;BME280;30789;52.030;7.110;2023-05-23T04:02:58;100951.81;;;13.72;86.44
34961;BME280;30789;52.030;7.110;2023-05-23T04:05:24;100950.59;;;13.77;86.13
34961;BME280;30789;52.030;7.110;2023-05-23T04:07:51;100951.81;;;13.80;86.07
34961;BME280;30789;52.030;7.110;2023-05-23T04:10:17;100956.53;;;13.79;85.46
34961;BME280;30789;52.030;7.110;2023-05-23T04:12:44;100959.31;;;13.79;85.62
34961;BME280;30789;52.030;7.110;2023-05-23T04:15:12;100957.34;;;13.76;85.29
34961;BME280;30789;52.030;7.110;2023-05-23T04:17:38;100960.50;;;13.74;85.89
34961;BME280;30789;52.030;7.110;2023-05-23T04:20:08;100970.41;;;13.68;85.85
34961;BME280;30789;52.030;7.110;2023-05-23T04:22:35;100982.28;;;13.65;86.31
34961;BME280;30789;52.030;7.110;2023-05-23T04:25:01;100975.16;;;13.64;85.78
34961;BME280;30789;52.030;7.110;2023-05-23T04:27:28;100975.16;;;13.64;85.59
34961;BME280;30789;52.030;7.110;2023-05-23T04:29:55;100983.88;;;13.56;86.16
34961;BME280;30789;52.030;7.110;2023-05-23T04:32:22;100981.50;;;13.47;86.30
34961;BME280;30789;52.030;7.110;2023-05-23T04:34:49;100986.66;;;13.52;85.95
34961;BME280;30789;52.030;7.110;2023-05-23T04:37:17;100986.63;;;13.49;85.44
34961;BME280;30789;52.030;7.110;2023-05-23T04:39:46;100989.00;;;13.54;85.61
34961;BME280;30789;52.030;7.110;2023-05-23T04:42:13;100987.44;;;13.46;84.97
34961;BME280;30789;52.030;7.110;2023-05-23T04:44:40;100994.97;;;13.56;84.54
34961;BME280;30789;52.030;7.110;2023-05-23T04:47:07;100990.19;;;13.70;84.01
34961;BME280;30789;52.030;7.110;2023-05-23T04:49:34;100992.94;;;13.77;83.44
34961;BME280;30789;52.030;7.110;2023-05-23T04:52:01;101004.44;;;13.76;83.59
34961;BME280;30789;52.030;7.110;2023-05-23T04:54:29;101009.19;;;13.83;82.93
34961;BME280;30789;52.030;7.110;2023-05-23T04:56:55;101008.38;;;13.75;83.89
34961;BME280;30789;52.030;7.110;2023-05-23T04:59:22;101008.00;;;13.66;84.67
34961;BME280;30789;52.030;7.110;2023-05-23T05:01:48;101013.94;;;13.61;84.75
34961;BME280;30789;52.030;7.110;2023-05-23T05:04:15;101019.06;;;13.73;83.92
34961;BME280;30789;52.030;7.110;2023-05-23T05:06:41;101024.22;;;13.64;85.01
34961;BME280;30789;52.030;7.110;2023-05-23T05:09:08;101028.56;;;13.61;85.67
34961;BME280;30789;52.030;7.110;2023-05-23T05:11:36;101020.28;;;13.54;85.62
34961;BME280;30789;52.030;7.110;2023-05-23T05:14:02;101028.59;;;13.54;85.66
34961;BME280;30789;52.030;7.110;2023-05-23T05:16:28;101035.31;;;13.53;86.22
34961;BME280;30789;52.030;7.110;2023-05-23T05:18:55;101040.44;;;13.65;85.91
34961;BME280;30789;52.030;7.110;2023-05-23T05:21:22;101030.56;;;13.61;86.52
34961;BME280;30789;52.030;7.110;2023-05-23T05:23:49;101049.16;;;13.53;86.91
34961;BME280;30789;52.030;7.110;2023-05-23T05:26:15;101051.13;;;13.49;87.04
34961;BME280;30789;52.030;7.110;2023-05-23T05:28:43;101050.31;;;13.28;87.52
34961;BME280;30789;52.030;7.110;2023-05-23T05:31:10;101050.72;;;13.30;87.82
34961;BME280;30789;52.030;7.110;2023-05-23T05:33:39;101060.59;;;13.31;87.69
34961;BME280;30789;52.030;7.110;2023-05-23T05:36:06;101066.53;;;13.22;88.17
34961;BME280;30789;52.030;7.110;2023-05-23T05:38:33;101053.47;;;13.26;87.13
34961;BME280;30789;52.030;7.110;2023-05-23T05:40:59;101072.06;;;13.22;86.72
34961;BME280;30789;52.030;7.110;2023-05-23T05:43:26;101073.25;;;13.18;87.07
34961;BME280;30789;52.030;7.110;2023-05-23T05:45:54;101073.22;;;13.11;87.03
34961;BME280;30789;52.030;7.110;2023-05-23T05:48:20;101075.59;;;13.12;87.25
34961;BME280;30789;52.030;7.110;2023-05-23T05:50:46;101078.75;;;13.14;86.87
34961;BME280;30789;52.030;7.110;2023-05-23T05:53:13;101088.66;;;13.22;86.01
34961;BME280;30789;52.030;7.110;2023-05-23T05:55:40;101100.06;;;13.03;86.28
34961;BME280;30789;52.030;7.110;2023-05-23T05:58:07;101091.78;;;13.07;86.51
34961;BME280;30789;52.030;7.110;2023-05-23T06:00:33;101095.34;;;13.11;85.73
34961;BME280;30789;52.030;7.110;2023-05-23T06:03:07;101099.22;;;12.92;86.08
34961;BME280;30789;52.030;7.110;2023-05-23T06:05:34;101098.53;;;13.23;85.61
34961;BME280;30789;52.030;7.110;2023-05-23T06:08:01;101106.84;;;13.23;85.90
34961;BME280;30789;52.030;7.110;2023-05-23T06:10:29;101107.28;;;13.29;85.65
34961;BME280;30789;52.030;7.110;2023-05-23T06:12:56;101116.00;;;13.38;85.33
34961;BME280;30789;52.030;7.110;2023-05-23T06:15:23;101118.75;;;13.34;85.44
34961;BME280;30789;52.030;7.110;2023-05-23T06:17:50;101114.38;;;13.26;85.47
34961;BME280;30789;52.030;7.110;2023-05-23T06:20:18;101116.78;;;13.35;85.04
34961;BME280;30789;52.030;7.110;2023-05-23T06:22:44;101125.06;;;13.31;84.16
34961;BME280;30789;52.030;7.110;2023-05-23T06:25:11;101118.75;;;13.45;83.84
34961;BME280;30789;52.030;7.110;2023-05-23T06:27:37;101128.63;;;13.39;83.32
34961;BME280;30789;52.030;7.110;2023-05-23T06:30:05;101121.09;;;13.25;83.80
34961;BME280;30789;52.030;7.110;2023-05-23T06:32:31;101130.19;;;13.29;84.08
34961;BME280;30789;52.030;7.110;2023-05-23T06:34:58;101131.00;;;13.33;83.55
34961;BME280;30789;52.030;7.110;2023-05-23T06:37:26;101127.03;;;13.24;83.73
34961;BME280;30789;52.030;7.110;2023-05-23T06:39:52;101134.91;;;13.11;83.71
34961;BME280;30789;52.030;7.110;2023-05-23T06:42:19;101132.50;;;13.10;83.70
34961;BME280;30789;52.030;7.110;2023-05-23T06:44:45;101134.09;;;13.11;83.51
34961;BME280;30789;52.030;7.110;2023-05-23T06:47:12;101130.19;;;13.26;83.02
34961;BME280;30789;52.030;7.110;2023-05-23T06:49:38;101134.16;;;13.32;82.93
34961;BME280;30789;52.030;7.110;2023-05-23T06:52:05;101137.34;;;13.44;82.74
34961;BME280;30789;52.030;7.110;2023-05-23T06:54:32;101135.72;;;13.29;82.03
34961;BME280;30789;52.030;7.110;2023-05-23T06:56:59;101143.66;;;13.27;82.36
34961;BME280;30789;52.030;7.110;2023-05-23T06:59:25;101150.00;;;13.35;81.65
34961;BME280;30789;52.030;7.110;2023-05-23T07:01:52;101153.16;;;13.33;81.87
34961;BME280;30789;52.030;7.110;2023-05-23T07:04:18;101157.81;;;13.15;81.71
34961;BME280;30789;52.030;7.110;2023-05-23T07:06:45;101158.22;;;13.17;81.92
34961;BME280;30789;52.030;7.110;2023-05-23T07:09:12;101162.94;;;13.06;82.23
34961;BME280;30789;52.030;7.110;2023-05-23T07:11:40;101161.00;;;13.17;81.70
34961;BME280;30789;52.030;7.110;2023-05-23T07:14:06;101172.13;;;13.31;81.01
34961;BME280;30789;52.030;7.110;2023-05-23T07:16:33;101167.69;;;13.09;80.91
34961;BME280;30789;52.030;7.110;2023-05-23T07:19:00;101172.06;;;13.14;81.27
34961;BME280;30789;52.030;7.110;2023-05-23T07:21:27;101176.03;;;13.16;80.94
34961;BME280;30789;52.030;7.110;2023-05-23T07:23:53;101180.34;;;13.07;81.02
34961;BME280;30789;52.030;7.110;2023-05-23T07:26:20;101184.22;;;12.99;81.28
34961;BME280;30789;52.030;7.110;2023-05-23T07:28:48;101188.94;;;12.95;81.38
34961;BME280;30789;52.030;7.110;2023-05-23T07:31:14;101195.97;;;12.75;81.80
34961;BME280;30789;52.030;7.110;2023-05-23T07:33:41;101186.06;;;12.70;82.05
34961;BME280;30789;52.030;7.110;2023-05-23T07:36:07;101187.28;;;12.83;81.93
34961;BME280;30789;52.030;7.110;2023-05-23T07:38:34;101192.91;;;12.97;80.84
34961;BME280;30789;52.030;7.110;2023-05-23T07:41:00;101200.03;;;12.98;80.38
34961;BME280;30789;52.030;7.110;2023-05-23T07:43:27;101204.06;;;13.11;80.23
34961;BME280;30789;52.030;7.110;2023-05-23T07:45:55;101204.84;;;13.01;80.60
34961;BME280;30789;52.030;7.110;2023-05-23T07:48:21;101212.19;;;12.80;80.79
34961;BME280;30789;52.030;7.110;2023-05-23T07:50:48;101207.41;;;12.73;81.05
34961;BME280;30789;52.030;7.110;2023-05-23T07:53:19;101209.31;;;12.62;81.13
34961;BME280;30789;52.030;7.110;2023-05-23T07:55:45;101214.13;;;12.76;81.10
34961;BME280;30789;52.030;7.110;2023-05-23T07:58:11;101224.41;;;12.79;80.30
34961;BME280;30789;52.030;7.110;2023-05-23T08:00:38;101233.78;;;12.57;80.89
34961;BME280;30789;52.030;7.110;2023-05-23T08:03:07;101238.34;;;12.35;81.77
34961;BME280;30789;52.030;7.110;2023-05-23T08:05:33;101237.97;;;12.37;82.32
34961;BME280;30789;52.030;7.110;2023-05-23T08:07:59;101243.47;;;12.33;82.25
34961;BME280;30789;52.030;7.110;2023-05-23T08:10:26;101238.31;;;12.32;81.92
34961;BME280;30789;52.030;7.110;2023-05-23T08:12:54;101239.63;;;12.45;81.25
34961;BME280;30789;52.030;7.110;2023-05-23T08:15:20;101244.81;;;12.53;81.25
34961;BME280;30789;52.030;7.110;2023-05-23T08:17:48;101251.59;;;12.66;80.40
34961;BME280;30789;52.030;7.110;2023-05-23T08:20:16;101256.06;;;12.31;80.90
34961;BME280;30789;52.030;7.110;2023-05-23T08:22:42;101264.88;;;12.47;81.01
34961;BME280;30789;52.030;7.110;2023-05-23T08:25:09;101264.88;;;12.47;80.55
34961;BME280;30789;52.030;7.110;2023-05-23T08:27:35;101260.19;;;12.54;79.94
34961;BME280;30789;52.030;7.110;2023-05-23T08:30:02;101263.28;;;12.42;80.18
34961;BME280;30789;52.030;7.110;2023-05-23T08:32:29;101269.03;;;12.23;80.22
34961;BME280;30789;52.030;7.110;2023-05-23T08:34:55;101274.53;;;12.20;80.82
34961;BME280;30789;52.030;7.110;2023-05-23T08:37:23;101272.97;;;12.19;80.46
34961;BME280;30789;52.030;7.110;2023-05-23T08:39:50;101280.47;;;12.22;79.57
34961;BME280;30789;52.030;7.110;2023-05-23T08:42:17;101278.19;;;12.31;79.18
34961;BME280;30789;52.030;7.110;2023-05-23T08:44:43;101287.34;;;12.42;77.93
34961;BME280;30789;52.030;7.110;2023-05-23T08:47:11;101283.84;;;12.45;77.10
34961;BME280;30789;52.030;7.110;2023-05-23T08:49:42;101284.66;;;12.49;76.01
34961;BME280;30789;52.030;7.110;2023-05-23T08:52:11;101290.31;;;12.63;75.17
34961;BME280;30789;52.030;7.110;2023-05-23T08:54:41;101290.09;;;12.92;74.41
34961;BME280;30789;52.030;7.110;2023-05-23T08:57:08;101288.66;;;13.12;73.70
34961;BME280;30789;52.030;7.110;2023-05-23T08:59:35;101294.72;;;13.32;71.65
34961;BME280;30789;52.030;7.110;2023-05-23T09:02:07;101312.00;;;14.01;69.36
34961;BME280;30789;52.030;7.110;2023-05-23T09:04:36;101295.81;;;14.41;67.31
34961;BME280;30789;52.030;7.110;2023-05-23T09:07:03;101302.19;;;14.70;66.58
34961;BME280;30789;52.030;7.110;2023-05-23T09:09:29;101302.97;;;14.60;66.52
34961;BME280;30789;52.030;7.110;2023-05-23T09:11:58;101296.59;;;14.73;65.85
34961;BME280;30789;52.030;7.110;2023-05-23T09:14:25;101304.97;;;14.70;64.39
34961;BME280;30789;52.030;7.110;2023-05-23T09:16:59;101306.47;;;14.22;64.50
34961;BME280;30789;52.030;7.110;2023-05-23T09:19:26;101301.38;;;14.31;65.34
34961;BME280;30789;52.030;7.110;2023-05-23T09:21:52;101301.38;;;14.66;65.66
34961;BME280;30789;52.030;7.110;2023-05-23T09:24:19;101306.09;;;14.97;64.67
34961;BME280;30789;52.030;7.110;2023-05-23T09:26:46;101312.50;;;14.62;62.96
34961;BME280;30789;52.030;7.110;2023-05-23T09:29:18;101312.06;;;14.36;63.78
34961;BME280;30789;52.030;7.110;2023-05-23T09:31:45;101306.94;;;14.38;64.19
34961;BME280;30789;52.030;7.110;2023-05-23T09:34:11;101314.84;;;14.60;64.34
34961;BME280;30789;52.030;7.110;2023-05-23T09:36:39;101314.47;;;14.62;63.39
34961;BME280;30789;52.030;7.110;2023-05-23T09:39:10;101314.06;;;14.63;63.33
34961;BME280;30789;52.030;7.110;2023-05-23T09:41:37;101329.91;;;14.56;63.42
34961;BME280;30789;52.030;7.110;2023-05-23T09:44:04;101327.13;;;14.38;63.32
34961;BME280;30789;52.030;7.110;2023-05-23T09:46:34;101321.97;;;14.51;64.22
34961;BME280;30789;52.030;7.110;2023-05-23T09:49:04;101323.94;;;14.33;63.29
34961;BME280;30789;52.030;7.110;2023-05-23T09:51:39;101335.44;;;14.87;63.21
34961;BME280;30789;52.030;7.110;2023-05-23T09:54:06;101330.66;;;15.19;61.85
34961;BME280;30789;52.030;7.110;2023-05-23T09:56:33;101323.44;;;15.36;60.93
34961;BME280;30789;52.030;7.110;2023-05-23T09:59:03;101332.22;;;15.45;59.02
34961;BME280;30789;52.030;7.110;2023-05-23T10:01:34;101337.69;;;15.63;60.25
34961;BME280;30789;52.030;7.110;2023-05-23T10:04:02;101333.84;;;15.11;60.35
34961;BME280;30789;52.030;7.110;2023-05-23T10:06:32;101338.22;;;14.63;61.54
34961;BME280;30789;52.030;7.110;2023-05-23T10:09:03;101340.22;;;14.38;62.64
34961;BME280;30789;52.030;7.110;2023-05-23T10:14:34;101350.44;;;14.16;64.39
34961;BME280;30789;52.030;7.110;2023-05-23T10:17:07;101350.44;;;14.23;62.88
34961;BME280;30789;52.030;7.110;2023-05-23T10:19:40;101354.06;;;14.38;62.71
34961;BME280;30789;52.030;7.110;2023-05-23T10:22:09;101352.09;;;14.66;62.12
34961;BME280;30789;52.030;7.110;2023-05-23T10:24:37;101357.25;;;14.75;60.55
34961;BME280;30789;52.030;7.110;2023-05-23T10:27:05;101357.66;;;14.84;60.14
34961;BME280;30789;52.030;7.110;2023-05-23T10:29:32;101359.63;;;14.66;58.53
34961;BME280;30789;52.030;7.110;2023-05-23T10:32:00;101359.25;;;14.99;58.12
34961;BME280;30789;52.030;7.110;2023-05-23T10:34:33;101358.78;;;15.32;57.98
34961;BME280;30789;52.030;7.110;2023-05-23T10:37:03;101365.88;;;15.61;57.54
34961;BME280;30789;52.030;7.110;2023-05-23T10:39:39;101350.66;;;15.90;55.02
34961;BME280;30789;52.030;7.110;2023-05-23T10:42:10;101357.59;;;15.51;55.16
34961;BME280;30789;52.030;7.110;2023-05-23T10:44:38;101360.00;;;15.31;55.90
34961;BME280;30789;52.030;7.110;2023-05-23T10:47:05;101367.53;;;15.45;55.94
34961;BME280;30789;52.030;7.110;2023-05-23T10:49:39;101371.06;;;16.38;54.78
34961;BME280;30789;52.030;7.110;2023-05-23T10:52:07;101375.13;;;17.66;51.01
34961;BME280;30789;52.030;7.110;2023-05-23T10:54:34;101374.41;;;18.52;48.61
34961;BME280;30789;52.030;7.110;2023-05-23T10:57:02;101361.25;;;19.84;45.67
34961;BME280;30789;52.030;7.110;2023-05-23T10:59:28;101361.06;;;20.30;42.90
34961;BME280;30789;52.030;7.110;2023-05-23T11:01:55;101367.06;;;19.74;43.32
34961;BME280;30789;52.030;7.110;2023-05-23T11:04:25;101368.13;;;20.87;43.50
34961;BME280;30789;52.030;7.110;2023-05-23T11:06:54;101358.09;;;20.38;42.65
34961;BME280;30789;52.030;7.110;2023-05-23T11:09:21;101366.75;;;21.11;40.27
34961;BME280;30789;52.030;7.110;2023-05-23T11:11:52;101361.81;;;20.51;41.42
34961;BME280;30789;52.030;7.110;2023-05-23T11:14:19;101352.69;;;20.79;40.09
34961;BME280;30789;52.030;7.110;2023-05-23T11:16:46;101363.38;;;20.84;42.43
34961;BME280;30789;52.030;7.110;2023-05-23T11:19:24;101358.66;;;21.13;39.81
34961;BME280;30789;52.030;7.110;2023-05-23T11:21:56;101365.13;;;21.26;39.29
34961;BME280;30789;52.030;7.110;2023-05-23T11:24:22;101361.53;;;21.25;40.88
34961;BME280;30789;52.030;7.110;2023-05-23T11:26:53;101367.59;;;21.24;38.56
34961;BME280;30789;52.030;7.110;2023-05-23T11:29:24;101353.16;;;21.82;38.90
34961;BME280;30789;52.030;7.110;2023-05-23T11:31:51;101350.50;;;22.04;37.47
34961;BME280;30789;52.030;7.110;2023-05-23T11:34:17;101362.25;;;20.13;41.04
34961;BME280;30789;52.030;7.110;2023-05-23T11:36:44;101365.44;;;20.99;39.39
34961;BME280;30789;52.030;7.110;2023-05-23T11:39:12;101361.16;;;21.39;38.71
34961;BME280;30789;52.030;7.110;2023-05-23T11:41:40;101370.47;;;20.20;39.71
34961;BME280;30789;52.030;7.110;2023-05-23T11:44:10;101372.41;;;19.45;41.46
34961;BME280;30789;52.030;7.110;2023-05-23T11:46:37;101367.19;;;19.47;42.34
34961;BME280;30789;52.030;7.110;2023-05-23T11:49:09;101377.06;;;19.32;42.85
34961;BME280;30789;52.030;7.110;2023-05-23T11:51:35;101370.06;;;19.21;42.25
34961;BME280;30789;52.030;7.110;2023-05-23T11:54:02;101367.63;;;19.23;41.46
34961;BME280;30789;52.030;7.110;2023-05-23T11:56:30;101368.63;;;19.75;41.20
34961;BME280;30789;52.030;7.110;2023-05-23T11:58:57;101373.47;;;19.32;41.76
34961;BME280;30789;52.030;7.110;2023-05-23T12:01:27;101374.50;;;19.18;42.08
34961;BME280;30789;52.030;7.110;2023-05-23T12:03:55;101386.69;;;19.31;41.19
34961;BME280;30789;52.030;7.110;2023-05-23T12:06:22;101377.28;;;18.95;41.77
34961;BME280;30789;52.030;7.110;2023-05-23T12:08:50;101378.97;;;19.78;39.59
34961;BME280;30789;52.030;7.110;2023-05-23T12:11:17;101375.44;;;19.93;39.41
34961;BME280;30789;52.030;7.110;2023-05-23T12:13:45;101379.44;;;19.53;41.32
34961;BME280;30789;52.030;7.110;2023-05-23T12:16:12;101388.88;;;18.94;42.38
34961;BME280;30789;52.030;7.110;2023-05-23T12:18:41;101386.91;;;18.94;42.83
34961;BME280;30789;52.030;7.110;2023-05-23T12:21:08;101389.47;;;19.31;42.10
34961;BME280;30789;52.030;7.110;2023-05-23T12:23:34;101379.16;;;19.28;40.87
34961;BME280;30789;52.030;7.110;2023-05-23T12:26:03;101381.84;;;20.13;41.07
34961;BME280;30789;52.030;7.110;2023-05-23T12:28:35;101369.44;;;20.82;37.81
34961;BME280;30789;52.030;7.110;2023-05-23T12:31:16;101378.47;;;21.06;36.22
34961;BME280;30789;52.030;7.110;2023-05-23T12:33:44;101384.53;;;21.49;35.29
34961;BME280;30789;52.030;7.110;2023-05-23T12:36:12;101377.84;;;21.30;36.25
34961;BME280;30789;52.030;7.110;2023-05-23T12:38:40;101375.31;;;21.04;36.00
34961;BME280;30789;52.030;7.110;2023-05-23T12:41:10;101377.09;;;21.42;38.02
34961;BME280;30789;52.030;7.110;2023-05-23T12:43:38;101384.19;;;21.47;36.94
34961;BME280;30789;52.030;7.110;2023-05-23T12:46:04;101384.59;;;21.17;37.90
34961;BME280;30789;52.030;7.110;2023-05-23T12:48:33;101385.84;;;20.32;38.74
34961;BME280;30789;52.030;7.110;2023-05-23T12:51:00;101383.91;;;20.45;36.54
34961;BME280;30789;52.030;7.110;2023-05-23T12:53:27;101382.13;;;21.19;36.00
34961;BME280;30789;52.030;7.110;2023-05-23T12:55:54;101379.41;;;21.60;35.57